createdAt,value
2019-05-19T00:00:53.292Z,28.00
2019-05-19T00:03:26.112Z,29.42
2019-05-19T00:05:59.974Z,23.25
2019-05-19T00:08:32.776Z,22.13
2019-05-19T00:11:05.727Z,19.52
2019-05-19T00:13:38.594Z,22.00
2019-05-19T00:16:12.375Z,22.15
2019-05-19T00:18:45.229Z,20.77
2019-05-19T00:21:18.153Z,20.25
2019-05-19T00:23:51.417Z,19.80
2019-05-19T00:26:24.556Z,20.35
2019-05-19T00:28:57.438Z,19.52
2019-05-19T00:31:30.271Z,23.57
2019-05-19T00:34:03.263Z,24.25
2019-05-19T00:36:36.454Z,19.00
2019-05-19T00:39:09.361Z,16.97
2019-05-19T00:41:42.167Z,18.70
2019-05-19T00:44:15.266Z,19.45
2019-05-19T00:46:49.371Z,20.77
2019-05-19T00:49:22.234Z,20.97
2019-05-19T00:51:55.037Z,23.18
2019-05-19T00:54:28.062Z,23.10
2019-05-19T00:57:02.158Z,22.20
2019-05-19T00:59:36.769Z,21.90
2019-05-19T01:02:09.579Z,24.92
2019-05-19T01:04:42.733Z,23.40
2019-05-19T01:07:15.618Z,23.80
2019-05-19T01:09:48.528Z,20.55
2019-05-19T01:12:21.438Z,18.87
2019-05-19T01:14:54.326Z,17.77
2019-05-19T01:17:28.102Z,19.92
2019-05-19T01:20:01.028Z,19.45
2019-05-19T01:22:35.136Z,20.57
2019-05-19T01:25:08.671Z,20.17
2019-05-19T01:27:41.581Z,19.95
2019-05-19T01:30:17.073Z,21.62
2019-05-19T01:32:49.880Z,20.70
2019-05-19T01:35:22.713Z,22.15
2019-05-19T01:37:55.590Z,21.87
2019-05-19T01:40:28.438Z,16.87
2019-05-19T01:43:01.310Z,22.07
2019-05-19T01:45:34.263Z,18.55
2019-05-19T01:48:07.061Z,21.37
2019-05-19T01:50:40.294Z,20.35
2019-05-19T01:53:13.127Z,20.35
2019-05-19T01:55:47.038Z,19.70
2019-05-19T01:58:20.126Z,20.27
2019-05-19T02:00:52.935Z,19.82
2019-05-19T02:03:25.814Z,22.52
2019-05-19T02:06:00.099Z,24.32
2019-05-19T02:08:33.018Z,23.42
2019-05-19T02:11:05.852Z,16.85
2019-05-19T02:13:38.653Z,18.17
2019-05-19T02:16:11.542Z,20.23
2019-05-19T02:18:44.335Z,20.85
2019-05-19T02:21:17.296Z,20.85
2019-05-19T02:23:50.138Z,20.10
2019-05-19T02:26:23.123Z,24.47
2019-05-19T02:28:55.954Z,23.40
2019-05-19T02:31:28.789Z,21.37
2019-05-19T02:34:02.510Z,16.05
2019-05-19T02:36:35.329Z,20.50
2019-05-19T02:39:08.898Z,22.48
2019-05-19T02:41:44.077Z,20.88
2019-05-19T02:44:19.026Z,21.42
2019-05-19T02:46:55.121Z,21.05
2019-05-19T02:49:30.761Z,24.85
2019-05-19T02:52:05.599Z,23.75
2019-05-19T02:54:38.864Z,22.07
2019-05-19T02:57:11.989Z,15.80
2019-05-19T02:59:46.390Z,18.50
2019-05-19T03:02:19.227Z,18.12
2019-05-19T03:04:52.156Z,21.45
2019-05-19T03:07:25.037Z,23.85
2019-05-19T03:09:57.956Z,23.95
2019-05-19T03:12:30.758Z,26.52
2019-05-19T03:15:03.654Z,27.40
2019-05-19T03:17:36.843Z,20.80
2019-05-19T03:20:09.799Z,22.27
2019-05-19T03:22:42.603Z,21.48
2019-05-19T03:25:15.470Z,20.45
2019-05-19T03:27:48.288Z,19.27
2019-05-19T03:30:39.056Z,20.97
2019-05-19T03:33:12.705Z,22.42
2019-05-19T03:35:45.748Z,23.75
2019-05-19T03:38:18.954Z,15.50
2019-05-19T03:40:51.829Z,20.70
2019-05-19T03:43:24.656Z,21.00
2019-05-19T03:45:57.467Z,21.93
2019-05-19T03:48:30.305Z,22.40
2019-05-19T03:51:03.133Z,21.90
2019-05-19T03:53:36.462Z,24.65
2019-05-19T03:56:09.275Z,23.50
2019-05-19T03:58:42.132Z,18.02
2019-05-19T04:01:14.952Z,22.25
2019-05-19T04:03:47.795Z,18.23
2019-05-19T04:06:20.633Z,20.90
2019-05-19T04:08:53.453Z,21.50
2019-05-19T04:11:26.293Z,21.65
2019-05-19T04:13:59.155Z,23.27
2019-05-19T04:16:32.044Z,20.57
2019-05-19T04:19:04.970Z,20.27
2019-05-19T04:21:48.344Z,19.05
2019-05-19T04:24:12.341Z,19.42
2019-05-19T04:26:45.148Z,19.98
2019-05-19T04:29:18.001Z,19.80
2019-05-19T04:31:50.872Z,19.15
2019-05-19T04:34:23.757Z,19.80
2019-05-19T04:36:56.589Z,17.95
2019-05-19T04:39:29.604Z,20.43
2019-05-19T04:42:02.519Z,20.15
2019-05-19T04:44:35.478Z,17.48
2019-05-19T04:47:08.387Z,22.25
2019-05-19T04:49:42.753Z,18.57
2019-05-19T04:52:17.150Z,21.75
2019-05-19T04:54:50.538Z,23.83
2019-05-19T04:57:23.539Z,21.42
2019-05-19T04:59:56.353Z,18.17
2019-05-19T05:02:29.145Z,19.87
2019-05-19T05:05:02.060Z,18.15
2019-05-19T05:07:35.016Z,19.05
2019-05-19T05:10:07.852Z,21.73
2019-05-19T05:12:40.720Z,21.52
2019-05-19T05:15:13.516Z,20.92
2019-05-19T05:17:46.367Z,23.98
2019-05-19T05:20:19.277Z,18.80
2019-05-19T05:22:52.068Z,21.97
2019-05-19T05:25:24.956Z,20.62
2019-05-19T05:27:57.749Z,16.62
2019-05-19T05:30:30.575Z,24.05
2019-05-19T05:33:03.385Z,22.15
2019-05-19T05:35:36.233Z,17.02
2019-05-19T05:38:09.080Z,21.77
2019-05-19T05:40:41.946Z,18.55
2019-05-19T05:43:14.760Z,18.85
2019-05-19T05:45:47.585Z,20.70
2019-05-19T05:48:21.434Z,25.85
2019-05-19T05:50:54.277Z,22.17
2019-05-19T05:53:27.179Z,25.62
2019-05-19T05:56:00.021Z,22.80
2019-05-19T05:58:32.906Z,20.25
2019-05-19T06:01:05.919Z,19.02
2019-05-19T06:03:38.779Z,25.37
2019-05-19T06:06:11.615Z,23.50
2019-05-19T06:08:44.539Z,23.90
2019-05-19T06:11:17.431Z,21.17
2019-05-19T06:13:50.361Z,21.48
2019-05-19T06:16:23.211Z,24.00
2019-05-19T06:18:56.904Z,24.18
2019-05-19T06:21:30.253Z,26.70
2019-05-19T06:24:03.201Z,27.62
2019-05-19T06:26:36.030Z,20.52
2019-05-19T06:29:09.020Z,17.82
2019-05-19T06:31:42.077Z,17.82
2019-05-19T06:34:14.889Z,19.77
2019-05-19T06:36:47.710Z,22.73
2019-05-19T06:39:20.721Z,21.48
2019-05-19T06:41:53.895Z,19.20
2019-05-19T06:44:26.881Z,18.50
2019-05-19T06:46:59.791Z,21.82
2019-05-19T06:49:32.860Z,19.45
2019-05-19T06:52:05.880Z,17.98
2019-05-19T06:54:38.883Z,19.15
2019-05-19T06:57:11.873Z,21.60
2019-05-19T06:59:44.850Z,22.13
2019-05-19T07:02:17.762Z,26.33
2019-05-19T07:04:50.608Z,19.77
2019-05-19T07:07:23.615Z,20.40
2019-05-19T07:09:58.978Z,16.23
2019-05-19T07:12:32.425Z,11.15
2019-05-19T07:21:49.441Z,9.73
2019-05-19T07:24:22.716Z,10.03
2019-05-19T07:26:56.059Z,10.03
2019-05-19T07:29:29.380Z,7.40
2019-05-19T07:32:02.440Z,9.30
2019-05-19T07:34:35.380Z,25.90
2019-05-19T07:37:11.286Z,14.40
2019-05-19T07:39:44.146Z,12.65
2019-05-19T07:42:17.102Z,10.43
2019-05-19T07:44:49.984Z,7.12
2019-05-19T07:47:22.985Z,7.60
2019-05-19T07:49:55.864Z,6.33
2019-05-19T07:52:28.891Z,11.75
2019-05-19T07:55:01.803Z,11.12
2019-05-19T07:57:34.671Z,10.48
2019-05-19T08:00:09.494Z,8.73
2019-05-19T08:02:42.413Z,5.20
2019-05-19T15:03:47.762Z,5.30
2019-05-19T15:06:20.952Z,5.85
2019-05-19T15:08:53.812Z,5.20
2019-05-19T15:11:26.599Z,4.65
2019-05-19T15:13:59.508Z,5.10
2019-05-19T15:16:32.414Z,5.30
2019-05-19T15:19:05.290Z,4.83
2019-05-19T15:21:38.085Z,4.87
2019-05-19T15:24:13.762Z,5.30
2019-05-19T15:26:46.664Z,4.40
2019-05-19T15:29:19.581Z,4.60
2019-05-19T15:31:52.401Z,4.92
2019-05-19T15:34:25.241Z,4.72
2019-05-19T15:36:58.088Z,5.30
2019-05-19T15:39:30.984Z,4.10
2019-05-19T15:42:03.855Z,4.17
2019-05-19T15:44:36.777Z,3.85
2019-05-19T15:47:10.680Z,3.77
2019-05-19T15:49:43.487Z,3.72
2019-05-19T15:52:16.314Z,4.20
2019-05-19T15:54:49.120Z,4.20
2019-05-19T15:57:22.168Z,4.65
2019-05-19T15:59:55.103Z,4.00
2019-05-19T16:02:27.918Z,4.40
2019-05-19T16:05:00.770Z,4.00
2019-05-19T16:07:33.524Z,3.85
2019-05-19T16:10:06.691Z,4.03
2019-05-19T16:12:39.568Z,4.10
2019-05-19T16:15:13.283Z,4.25
2019-05-19T16:17:46.196Z,4.62
2019-05-19T16:20:19.466Z,8.25
2019-05-19T16:22:56.509Z,7.53
2019-05-19T16:25:29.380Z,6.97
2019-05-19T16:28:02.297Z,6.60
2019-05-19T16:30:36.287Z,5.60
2019-05-19T16:33:09.178Z,7.22
2019-05-19T16:35:42.065Z,7.55
2019-05-19T16:38:15.238Z,7.30
2019-05-19T16:40:48.239Z,12.00
2019-05-19T16:43:21.174Z,7.28
2019-05-19T16:45:54.141Z,9.25
2019-05-19T16:48:27.056Z,5.83
2019-05-19T16:51:04.357Z,8.15
2019-05-19T16:53:37.845Z,8.20
2019-05-19T16:56:11.024Z,9.00
2019-05-19T16:58:45.580Z,8.80
2019-05-19T17:01:20.074Z,9.73
2019-05-19T17:03:53.307Z,9.03
2019-05-19T17:06:26.512Z,7.67
2019-05-19T17:08:59.388Z,9.28
2019-05-19T17:11:35.463Z,8.85
2019-05-19T17:14:08.395Z,11.65
2019-05-19T17:16:41.542Z,10.35
2019-05-19T17:19:14.474Z,6.78
2019-05-19T17:21:47.516Z,6.10
2019-05-19T17:24:20.439Z,6.75
2019-05-19T17:26:53.297Z,5.92
2019-05-19T17:29:27.818Z,5.15
2019-05-19T17:32:05.944Z,4.90
2019-05-19T17:34:35.192Z,5.78
2019-05-19T17:37:08.102Z,5.35
2019-05-19T17:39:40.905Z,6.62
2019-05-19T17:42:13.990Z,8.98
2019-05-19T17:44:47.093Z,8.08
2019-05-19T17:47:20.019Z,8.60
2019-05-19T17:49:52.813Z,6.83
2019-05-19T17:52:25.701Z,7.28
2019-05-19T17:54:58.623Z,5.22
2019-05-19T17:57:32.217Z,5.60
2019-05-19T18:00:06.212Z,7.33
2019-05-19T18:02:39.247Z,6.62
2019-05-19T18:05:12.325Z,7.08
2019-05-19T18:07:45.197Z,9.40
2019-05-19T18:10:18.119Z,7.50
2019-05-19T18:12:51.070Z,8.08
2019-05-19T18:15:23.884Z,6.80
2019-05-19T18:17:58.436Z,8.53
2019-05-19T18:20:31.385Z,5.97
2019-05-19T18:23:04.308Z,5.95
2019-05-19T18:25:37.279Z,7.25
2019-05-19T18:28:10.624Z,10.78
2019-05-19T18:30:43.654Z,10.82
2019-05-19T18:33:18.215Z,8.73
2019-05-19T18:35:51.067Z,7.42
2019-05-19T18:38:24.073Z,5.70
2019-05-19T18:40:56.877Z,3.90
2019-05-19T18:43:29.816Z,4.90
2019-05-19T18:46:02.725Z,5.78
2019-05-19T18:48:38.795Z,6.30
2019-05-19T18:51:11.801Z,5.45
2019-05-19T18:53:46.685Z,7.03
2019-05-19T18:56:22.907Z,14.18
2019-05-19T18:58:56.028Z,14.98
2019-05-19T19:01:33.458Z,8.43
2019-05-19T19:04:08.167Z,6.47
2019-05-19T19:06:41.241Z,6.15
2019-05-19T19:09:14.294Z,6.00
2019-05-19T19:11:47.269Z,6.62
2019-05-19T19:14:20.426Z,6.10
2019-05-19T19:16:53.355Z,5.55
2019-05-19T19:19:29.599Z,5.90
2019-05-19T19:22:04.038Z,5.78
2019-05-19T19:24:38.669Z,5.75
2019-05-19T19:27:11.679Z,6.33
2019-05-19T19:29:44.715Z,7.78
2019-05-19T19:32:17.600Z,6.65
2019-05-19T19:34:50.494Z,5.05
2019-05-19T19:37:23.420Z,4.80
2019-05-19T19:39:56.321Z,4.70
2019-05-19T19:42:29.262Z,4.83
2019-05-19T19:45:02.159Z,5.00
2019-05-19T19:47:36.490Z,5.37
2019-05-19T19:50:09.600Z,4.83
2019-05-19T19:52:42.703Z,5.40
2019-05-19T19:55:15.729Z,5.33
2019-05-19T19:57:48.746Z,4.83
2019-05-19T20:00:42.412Z,5.33
2019-05-19T20:03:16.390Z,4.78
2019-05-19T20:05:50.932Z,3.70
2019-05-19T20:08:23.857Z,5.22
2019-05-19T20:10:56.742Z,5.58
2019-05-19T20:13:29.675Z,7.25
2019-05-19T20:16:02.580Z,7.10
2019-05-19T20:18:35.348Z,4.12
2019-05-19T20:21:08.214Z,4.62
2019-05-19T20:23:41.249Z,4.17
2019-05-19T20:26:14.132Z,4.50
2019-05-19T20:28:47.081Z,4.03
2019-05-19T20:31:19.916Z,4.22
2019-05-19T20:33:52.854Z,4.90
2019-05-19T20:36:26.039Z,4.30
2019-05-19T20:38:58.927Z,5.17
2019-05-19T20:41:31.812Z,5.53
2019-05-19T20:44:05.241Z,5.53
2019-05-19T20:46:38.075Z,5.10
2019-05-19T20:49:11.026Z,5.97
2019-05-19T20:51:44.817Z,5.90
2019-05-19T20:54:17.620Z,5.75
2019-05-19T20:56:50.837Z,5.65
2019-05-19T20:59:24.643Z,6.53
2019-05-19T21:01:57.493Z,6.10
2019-05-19T21:04:30.312Z,6.08
2019-05-19T21:07:03.229Z,6.10
2019-05-19T21:09:36.207Z,7.03
2019-05-19T21:12:09.042Z,7.37
2019-05-19T21:14:42.971Z,8.63
2019-05-19T21:17:15.887Z,8.20
2019-05-19T21:19:50.383Z,7.85
2019-05-19T21:22:23.204Z,8.00
2019-05-19T21:24:56.066Z,8.00
2019-05-19T21:27:29.829Z,7.25
2019-05-19T21:30:02.665Z,6.40
2019-05-19T21:32:35.538Z,5.85
2019-05-19T21:35:09.008Z,5.40
2019-05-19T21:37:41.849Z,5.75
2019-05-19T21:40:14.796Z,5.65
2019-05-19T21:42:47.608Z,5.40
2019-05-19T21:45:20.582Z,5.28
2019-05-19T21:47:53.421Z,4.78
2019-05-19T21:50:26.256Z,4.87
2019-05-19T21:52:59.170Z,5.37
2019-05-19T21:55:31.971Z,7.08
2019-05-19T21:58:04.954Z,6.83
2019-05-19T22:00:37.838Z,6.53
2019-05-19T22:03:10.859Z,7.33
2019-05-19T22:05:52.845Z,6.40
2019-05-19T22:08:18.693Z,6.42
2019-05-19T22:10:51.488Z,5.97
2019-05-19T22:13:24.366Z,7.65
2019-05-19T22:16:11.600Z,7.10
2019-05-19T22:18:31.973Z,7.03
2019-05-19T22:21:04.836Z,6.97
2019-05-19T22:23:37.672Z,6.95
2019-05-19T22:26:10.577Z,6.60
2019-05-19T22:28:43.410Z,6.30
2019-05-19T22:31:16.409Z,5.90
2019-05-19T22:33:49.314Z,6.12
2019-05-19T22:36:22.122Z,6.37
2019-05-19T22:38:55.000Z,6.42
2019-05-19T22:41:27.812Z,6.37
2019-05-19T22:44:00.887Z,6.97
2019-05-19T22:46:34.760Z,7.40
2019-05-19T22:49:07.641Z,8.18
2019-05-19T22:51:40.500Z,7.08
2019-05-19T22:54:13.339Z,7.17
2019-05-19T22:56:46.137Z,5.85
2019-05-19T22:59:20.449Z,6.22
2019-05-19T23:01:53.487Z,6.17
2019-05-19T23:04:26.493Z,7.42
2019-05-19T23:06:59.424Z,6.90
2019-05-19T23:09:32.420Z,7.28
2019-05-19T23:12:05.213Z,6.62
2019-05-19T23:14:39.135Z,7.37
2019-05-19T23:17:11.939Z,6.97
2019-05-19T23:19:45.032Z,7.92
2019-05-19T23:22:17.848Z,6.53
2019-05-19T23:24:51.957Z,6.97
2019-05-19T23:27:24.847Z,7.30
2019-05-19T23:29:57.774Z,8.15
2019-05-19T23:32:30.640Z,8.95
2019-05-19T23:35:03.493Z,8.60
2019-05-19T23:37:36.387Z,7.12
2019-05-19T23:40:10.498Z,6.40
2019-05-19T23:42:43.383Z,6.20
2019-05-19T23:45:16.759Z,6.92
2019-05-19T23:47:49.589Z,8.53
2019-05-19T23:50:22.383Z,7.70
2019-05-19T23:52:55.214Z,7.70
2019-05-19T23:55:27.995Z,6.17
2019-05-19T23:58:00.929Z,6.05
